createdAt,value
2022-11-27T00:00:34.044Z,4.70
2022-11-27T00:03:01.268Z,5.28
2022-11-27T00:05:28.401Z,5.88
2022-11-27T00:07:55.403Z,4.40
2022-11-27T00:10:22.441Z,5.10
2022-11-27T00:12:49.407Z,5.00
2022-11-27T00:15:17.468Z,5.50
2022-11-27T00:17:44.626Z,5.15
2022-11-27T00:20:13.108Z,5.68
2022-11-27T00:22:40.094Z,4.78
2022-11-27T00:25:07.628Z,4.45
2022-11-27T00:27:34.640Z,4.95
2022-11-27T00:30:01.712Z,4.50
2022-11-27T00:32:28.625Z,4.63
2022-11-27T00:34:55.581Z,4.80
2022-11-27T00:37:22.572Z,5.13
2022-11-27T00:39:49.539Z,5.25
2022-11-27T00:42:16.546Z,5.78
2022-11-27T00:44:43.560Z,5.53
2022-11-27T00:47:10.580Z,5.57
2022-11-27T00:49:37.587Z,5.13
2022-11-27T00:52:04.999Z,5.50
2022-11-27T00:54:31.970Z,5.20
2022-11-27T00:56:58.924Z,4.60
2022-11-27T00:59:26.666Z,5.18
2022-11-27T01:01:53.602Z,5.55
2022-11-27T01:04:20.639Z,5.07
2022-11-27T01:06:47.681Z,5.30
2022-11-27T01:09:15.537Z,6.50
2022-11-27T01:11:43.224Z,5.07
2022-11-27T01:14:18.736Z,5.55
2022-11-27T01:16:45.780Z,5.45
2022-11-27T01:19:13.932Z,4.82
2022-11-27T01:21:41.336Z,6.00
2022-11-27T01:24:08.949Z,4.90
2022-11-27T01:26:35.864Z,5.57
2022-11-27T01:29:02.952Z,5.38
2022-11-27T01:31:32.461Z,5.10
2022-11-27T01:34:08.041Z,5.45
2022-11-27T01:36:35.839Z,5.53
2022-11-27T01:39:02.942Z,6.50
2022-11-27T01:41:37.462Z,5.53
2022-11-27T01:44:24.355Z,7.30
2022-11-27T01:46:54.107Z,6.57
2022-11-27T01:49:44.931Z,6.97
2022-11-27T01:52:17.204Z,7.90
2022-11-27T01:54:58.500Z,7.50
2022-11-27T01:57:30.266Z,7.90
2022-11-27T02:00:00.086Z,7.85
2022-11-27T02:02:27.837Z,7.90
2022-11-27T02:04:55.687Z,7.50
2022-11-27T02:07:22.979Z,7.75
2022-11-27T02:09:50.219Z,7.97
2022-11-27T02:12:35.551Z,8.82
2022-11-27T02:15:32.665Z,7.82
2022-11-27T02:18:28.314Z,7.45
2022-11-27T02:20:58.119Z,7.82
2022-11-27T02:23:59.987Z,7.80
2022-11-27T02:27:03.652Z,6.97
2022-11-27T02:29:34.240Z,8.18
2022-11-27T02:32:42.846Z,7.40
2022-11-27T02:35:20.894Z,8.50
2022-11-27T02:37:52.139Z,8.10
2022-11-27T02:40:44.391Z,6.78
2022-11-27T02:43:43.074Z,8.05
2022-11-27T02:46:13.197Z,7.72
2022-11-27T02:48:46.225Z,6.55
2022-11-27T02:51:15.160Z,8.55
2022-11-27T02:53:49.946Z,8.30
2022-11-27T02:56:20.289Z,7.93
2022-11-27T02:58:49.198Z,8.80
2022-11-27T03:01:20.526Z,8.50
2022-11-27T03:03:52.660Z,7.68
2022-11-27T03:06:30.101Z,9.20
2022-11-27T03:09:06.859Z,8.65
2022-11-27T03:11:34.509Z,8.25
2022-11-27T03:14:06.510Z,8.65
2022-11-27T03:16:42.393Z,9.50
2022-11-27T03:19:37.834Z,9.38
2022-11-27T03:22:05.458Z,9.00
2022-11-27T03:24:35.280Z,8.38
2022-11-27T03:27:03.786Z,8.13
2022-11-27T03:29:41.323Z,8.80
2022-11-27T03:32:08.838Z,8.02
2022-11-27T03:34:36.831Z,8.70
2022-11-27T03:37:04.830Z,8.95
2022-11-27T03:39:33.518Z,9.38
2022-11-27T03:42:05.467Z,9.70
2022-11-27T03:45:05.798Z,8.60
2022-11-27T03:47:55.880Z,8.50
2022-11-27T03:50:22.987Z,9.20
2022-11-27T03:53:08.736Z,10.30
2022-11-27T03:55:47.688Z,8.77
2022-11-27T03:58:32.924Z,9.27
2022-11-27T04:01:01.737Z,9.38
2022-11-27T04:03:30.208Z,9.30
2022-11-27T04:05:57.738Z,10.52
2022-11-27T04:08:24.968Z,9.80
2022-11-27T04:10:51.969Z,9.68
2022-11-27T04:13:18.958Z,8.98
2022-11-27T04:15:46.364Z,9.45
2022-11-27T04:18:13.446Z,10.00
2022-11-27T04:20:40.486Z,8.70
2022-11-27T04:23:07.477Z,10.57
2022-11-27T04:25:34.478Z,9.52
2022-11-27T04:28:01.541Z,9.20
2022-11-27T04:30:28.500Z,9.25
2022-11-27T04:32:55.444Z,9.90
2022-11-27T04:35:22.426Z,9.95
2022-11-27T04:37:49.358Z,10.10
2022-11-27T04:40:16.375Z,10.35
2022-11-27T04:42:43.356Z,9.48
2022-11-27T04:45:10.879Z,8.77
2022-11-27T04:47:37.853Z,9.35
2022-11-27T04:50:05.385Z,9.48
2022-11-27T04:52:32.431Z,10.45
2022-11-27T04:55:00.444Z,9.27
2022-11-27T04:57:27.885Z,10.00
2022-11-27T04:59:54.966Z,10.48
2022-11-27T05:02:22.275Z,8.73
2022-11-27T05:04:49.371Z,9.93
2022-11-27T05:07:16.428Z,9.05
2022-11-27T05:09:43.455Z,8.77
2022-11-27T05:12:10.429Z,9.70
2022-11-27T05:14:37.507Z,9.20
2022-11-27T05:17:04.828Z,8.75
2022-11-27T05:19:32.379Z,9.52
2022-11-27T05:21:59.670Z,8.07
2022-11-27T05:24:28.492Z,9.63
2022-11-27T05:26:56.770Z,9.27
2022-11-27T05:29:26.271Z,10.35
2022-11-27T05:31:53.483Z,9.60
2022-11-27T05:34:20.939Z,9.48
2022-11-27T05:36:47.974Z,9.57
2022-11-27T05:39:15.551Z,8.98
2022-11-27T05:41:43.652Z,7.65
2022-11-27T05:44:15.217Z,7.95
2022-11-27T05:46:45.838Z,7.57
2022-11-27T05:49:14.271Z,8.05
2022-11-27T05:51:44.186Z,7.63
2022-11-27T05:54:16.335Z,7.25
2022-11-27T05:56:43.265Z,7.65
2022-11-27T05:59:11.013Z,7.85
2022-11-27T06:01:38.154Z,7.85
2022-11-27T06:04:05.290Z,7.47
2022-11-27T06:06:32.850Z,6.78
2022-11-27T06:09:00.529Z,6.68
2022-11-27T06:11:27.675Z,7.38
2022-11-27T06:13:54.655Z,6.80
2022-11-27T06:16:23.717Z,7.38
2022-11-27T06:18:52.738Z,6.95
2022-11-27T06:21:20.953Z,6.60
2022-11-27T06:23:47.973Z,8.13
2022-11-27T06:26:23.948Z,7.50
2022-11-27T06:28:51.620Z,7.22
2022-11-27T06:31:21.864Z,7.88
2022-11-27T06:33:51.045Z,7.70
2022-11-27T06:36:19.291Z,6.78
2022-11-27T06:38:47.065Z,7.97
2022-11-27T06:41:24.221Z,7.70
2022-11-27T06:43:51.553Z,7.07
2022-11-27T06:46:21.259Z,7.38
2022-11-27T06:48:50.015Z,7.60
2022-11-27T06:51:19.987Z,7.65
2022-11-27T06:53:48.239Z,7.60
2022-11-27T06:56:19.501Z,7.35
2022-11-27T06:58:46.565Z,9.30
2022-11-27T07:01:16.479Z,7.70
2022-11-27T07:03:44.744Z,7.28
2022-11-27T07:06:15.549Z,8.65
2022-11-27T07:08:42.631Z,8.23
2022-11-27T07:11:22.578Z,8.35
2022-11-27T07:13:51.312Z,7.50
2022-11-27T07:16:19.217Z,9.10
2022-11-27T07:18:51.295Z,9.32
2022-11-27T07:21:18.701Z,9.40
2022-11-27T07:23:45.939Z,10.15
2022-11-27T07:26:15.591Z,11.10
2022-11-27T07:28:45.916Z,10.77
2022-11-27T07:31:15.575Z,9.98
2022-11-27T07:33:42.584Z,10.55
2022-11-27T07:36:17.514Z,9.32
2022-11-27T07:38:45.733Z,11.30
2022-11-27T07:41:13.994Z,10.85
2022-11-27T07:43:42.484Z,10.70
2022-11-27T07:46:16.412Z,10.23
2022-11-27T07:48:43.639Z,11.68
2022-11-27T07:51:12.953Z,11.27
2022-11-27T07:53:41.853Z,11.32
2022-11-27T07:56:11.517Z,10.07
2022-11-27T07:58:38.616Z,9.93
2022-11-27T08:01:11.268Z,10.50
2022-11-27T08:03:38.644Z,10.35
2022-11-27T08:06:13.271Z,10.60
2022-11-27T08:08:40.190Z,10.02
2022-11-27T08:11:07.134Z,10.25
2022-11-27T08:13:34.124Z,10.43
2022-11-27T08:16:01.186Z,10.35
2022-11-27T08:18:28.301Z,9.80
2022-11-27T08:20:55.261Z,11.23
2022-11-27T08:23:22.279Z,9.43
2022-11-27T08:25:49.314Z,9.43
2022-11-27T08:28:16.260Z,8.73
2022-11-27T08:30:43.270Z,8.90
2022-11-27T08:33:10.935Z,8.48
2022-11-27T08:35:37.973Z,8.57
2022-11-27T08:38:05.106Z,8.40
2022-11-27T08:40:32.144Z,9.45
2022-11-27T08:42:59.421Z,9.50
2022-11-27T08:45:26.445Z,10.85
2022-11-27T08:47:53.637Z,11.00
2022-11-27T08:50:20.639Z,10.32
2022-11-27T08:52:47.605Z,11.63
2022-11-27T08:55:14.604Z,10.52
2022-11-27T08:57:41.619Z,11.13
2022-11-27T09:00:09.335Z,10.95
2022-11-27T09:02:36.381Z,10.98
2022-11-27T09:05:05.933Z,11.25
2022-11-27T09:07:32.983Z,11.95
2022-11-27T09:10:00.046Z,10.77
2022-11-27T09:12:27.688Z,12.45
2022-11-27T09:14:54.706Z,12.05
2022-11-27T09:17:21.704Z,13.55
2022-11-27T09:19:48.670Z,12.88
2022-11-27T09:22:15.689Z,12.93
2022-11-27T09:24:43.038Z,12.40
2022-11-27T09:27:10.917Z,13.13
2022-11-27T09:29:38.061Z,13.80
2022-11-27T09:32:05.185Z,13.43
2022-11-27T09:34:37.150Z,12.20
2022-11-27T09:37:05.305Z,13.13
2022-11-27T09:39:34.113Z,13.00
2022-11-27T09:42:06.302Z,12.95
2022-11-27T09:45:00.778Z,13.80
2022-11-27T09:47:36.094Z,12.13
2022-11-27T09:50:19.153Z,12.40
2022-11-27T09:53:00.225Z,13.02
2022-11-27T09:55:36.811Z,11.50
2022-11-27T09:58:17.991Z,13.55
2022-11-27T10:00:46.856Z,12.73
2022-11-27T10:03:15.723Z,13.65
2022-11-27T10:06:11.089Z,14.20
2022-11-27T10:09:14.500Z,12.57
2022-11-27T10:11:50.207Z,12.93
2022-11-27T10:15:00.095Z,11.57
2022-11-27T10:18:03.888Z,12.18
2022-11-27T10:20:49.085Z,12.32
2022-11-27T10:23:32.584Z,12.80
2022-11-27T10:26:04.554Z,11.93
2022-11-27T10:28:37.943Z,12.30
2022-11-27T10:31:17.836Z,13.00
2022-11-27T10:33:54.964Z,12.05
2022-11-27T10:36:39.136Z,11.60
2022-11-27T10:39:16.330Z,12.07
2022-11-27T10:42:10.707Z,12.05
2022-11-27T10:44:56.905Z,12.90
2022-11-27T10:47:28.543Z,12.73
2022-11-27T10:49:57.997Z,12.23
2022-11-27T10:52:25.354Z,11.60
2022-11-27T10:55:03.573Z,11.75
2022-11-27T10:57:38.771Z,12.02
2022-11-27T11:00:23.341Z,13.13
2022-11-27T11:03:04.733Z,10.38
2022-11-27T11:05:45.482Z,12.20
2022-11-27T11:08:21.159Z,11.57
2022-11-27T11:11:02.600Z,12.82
2022-11-27T11:13:30.541Z,12.73
2022-11-27T11:16:14.509Z,13.13
2022-11-27T11:18:51.177Z,12.18
2022-11-27T11:21:40.703Z,12.25
2022-11-27T11:24:15.990Z,11.63
2022-11-27T11:26:52.560Z,13.05
2022-11-27T11:29:34.437Z,11.43
2022-11-27T11:32:22.122Z,12.68
2022-11-27T11:35:03.075Z,12.57
2022-11-27T11:37:42.234Z,13.02
2022-11-27T11:40:33.837Z,12.45
2022-11-27T11:43:10.350Z,12.25
2022-11-27T11:45:47.080Z,13.90
2022-11-27T11:48:24.389Z,13.23
2022-11-27T11:50:56.301Z,11.73
2022-11-27T11:53:35.622Z,13.50
2022-11-27T11:56:08.465Z,12.50
2022-11-27T11:58:49.283Z,13.43
2022-11-27T12:01:27.523Z,12.13
2022-11-27T12:04:13.042Z,12.88
2022-11-27T12:06:58.195Z,13.23
2022-11-27T12:09:31.092Z,13.23
2022-11-27T12:12:01.612Z,13.23
2022-11-27T12:15:07.425Z,13.02
2022-11-27T12:17:48.597Z,13.88
2022-11-27T12:20:26.575Z,13.02
2022-11-27T12:23:28.653Z,12.07
2022-11-27T12:26:01.952Z,12.32
2022-11-27T12:28:39.264Z,13.48
2022-11-27T12:31:28.472Z,13.35
2022-11-27T12:34:01.621Z,12.90
2022-11-27T12:36:54.920Z,12.55
2022-11-27T12:39:32.802Z,13.50
2022-11-27T12:42:07.710Z,11.68
2022-11-27T12:44:53.474Z,12.48
2022-11-27T12:47:44.695Z,13.88
2022-11-27T12:50:34.407Z,13.05
2022-11-27T12:53:18.803Z,12.35
2022-11-27T12:56:29.335Z,14.35
2022-11-27T12:59:19.504Z,14.15
2022-11-27T13:02:00.291Z,14.48
2022-11-27T13:04:52.848Z,13.20
2022-11-27T13:07:22.893Z,12.48
2022-11-27T13:09:59.090Z,12.48
2022-11-27T13:12:39.435Z,13.23
2022-11-27T13:15:26.186Z,13.10
2022-11-27T13:18:03.208Z,13.73
2022-11-27T13:20:39.392Z,13.75
2022-11-27T13:23:06.663Z,14.23
2022-11-27T13:25:41.217Z,13.77
2022-11-27T13:28:09.288Z,15.32
2022-11-27T13:30:38.414Z,14.15
2022-11-27T13:33:07.564Z,14.07
2022-11-27T13:35:34.690Z,12.65
2022-11-27T13:38:13.800Z,13.13
2022-11-27T13:40:47.881Z,13.48
2022-11-27T13:43:19.862Z,14.07
2022-11-27T13:45:47.652Z,13.73
2022-11-27T13:48:29.702Z,12.63
2022-11-27T13:50:58.861Z,13.63
2022-11-27T13:53:41.647Z,14.70
2022-11-27T13:56:10.456Z,13.70
2022-11-27T13:58:42.907Z,14.15
2022-11-27T14:01:21.594Z,14.10
2022-11-27T14:03:50.229Z,13.50
2022-11-27T14:06:23.135Z,13.30
2022-11-27T14:09:01.843Z,13.63
2022-11-27T14:11:40.742Z,14.50
2022-11-27T14:14:23.978Z,12.98
2022-11-27T14:17:01.977Z,13.07
2022-11-27T14:19:56.029Z,12.80
2022-11-27T14:23:09.995Z,11.93
2022-11-27T14:25:36.366Z,13.65
2022-11-27T14:28:26.496Z,14.32
2022-11-27T14:30:57.661Z,13.80
2022-11-27T14:33:31.225Z,14.65
2022-11-27T14:36:05.015Z,14.50
2022-11-27T14:38:33.969Z,15.15
2022-11-27T14:41:23.314Z,14.52
2022-11-27T14:44:03.566Z,14.50
2022-11-27T14:46:36.353Z,14.20
2022-11-27T14:49:04.542Z,15.95
2022-11-27T14:51:35.533Z,16.13
2022-11-27T14:54:12.375Z,16.38
2022-11-27T14:56:46.146Z,17.20
2022-11-27T14:59:19.085Z,17.23
2022-11-27T15:01:58.856Z,16.70
2022-11-27T15:04:33.078Z,14.52
2022-11-27T15:07:00.754Z,15.52
2022-11-27T15:09:43.203Z,15.52
2022-11-27T15:12:29.984Z,16.20
2022-11-27T15:15:06.719Z,15.95
2022-11-27T15:17:37.748Z,14.70
2022-11-27T15:20:16.017Z,15.40
2022-11-27T15:22:57.925Z,15.25
2022-11-27T15:26:12.579Z,14.25
2022-11-27T15:28:53.751Z,15.27
2022-11-27T15:31:37.975Z,16.25
2022-11-27T15:34:14.481Z,15.85
2022-11-27T15:36:44.319Z,14.60
2022-11-27T15:39:52.156Z,14.02
2022-11-27T15:42:20.526Z,14.68
2022-11-27T15:44:49.716Z,15.63
2022-11-27T15:47:34.610Z,19.90
2022-11-27T15:50:02.210Z,28.95
2022-11-27T15:52:29.326Z,39.88
2022-11-27T15:54:57.146Z,26.10
2022-11-27T15:57:25.600Z,25.00
2022-11-27T15:59:53.199Z,27.98
2022-11-27T16:02:20.645Z,26.70
2022-11-27T16:04:47.873Z,30.52
2022-11-27T16:07:17.311Z,26.27
2022-11-27T16:09:44.552Z,25.88
2022-11-27T16:12:12.067Z,21.92
2022-11-27T16:14:39.434Z,21.77
2022-11-27T16:17:06.720Z,23.25
2022-11-27T16:19:34.107Z,25.67
2022-11-27T16:22:01.315Z,23.27
2022-11-27T16:24:28.749Z,21.77
2022-11-27T16:26:58.824Z,22.80
2022-11-27T16:29:26.519Z,23.95
2022-11-27T16:31:54.165Z,22.85
2022-11-27T16:34:22.367Z,21.48
2022-11-27T16:36:50.086Z,20.90
2022-11-27T16:39:18.238Z,21.65
2022-11-27T16:41:45.891Z,22.55
2022-11-27T16:44:15.378Z,22.80
2022-11-27T16:46:44.795Z,22.05
2022-11-27T16:49:13.448Z,22.42
2022-11-27T16:51:42.009Z,22.65
2022-11-27T16:54:13.359Z,22.90
2022-11-27T16:56:41.072Z,22.73
2022-11-27T16:59:15.959Z,25.08
2022-11-27T17:01:45.372Z,24.65
2022-11-27T17:04:20.090Z,28.40
2022-11-27T17:06:49.465Z,31.42
2022-11-27T17:09:17.702Z,35.75
2022-11-27T17:11:48.922Z,40.42
2022-11-27T17:14:17.285Z,31.73
2022-11-27T17:16:45.425Z,28.00
2022-11-27T17:19:14.311Z,28.70
2022-11-27T17:21:42.642Z,25.58
2022-11-27T17:24:16.503Z,22.67
2022-11-27T17:26:44.987Z,23.33
2022-11-27T17:29:14.534Z,21.05
2022-11-27T17:31:43.060Z,22.20
2022-11-27T17:34:14.842Z,19.38
2022-11-27T17:36:43.665Z,20.52
2022-11-27T17:39:13.575Z,19.50
2022-11-27T17:41:45.378Z,18.23
2022-11-27T17:44:13.315Z,17.35
2022-11-27T17:46:41.197Z,18.20
2022-11-27T17:49:11.511Z,19.77
2022-11-27T17:51:39.067Z,22.35
2022-11-27T17:54:06.570Z,22.38
2022-11-27T17:56:36.383Z,25.48
2022-11-27T17:59:04.755Z,22.65
2022-11-27T18:01:34.872Z,21.50
2022-11-27T18:04:04.795Z,22.00
2022-11-27T18:06:33.523Z,19.45
2022-11-27T18:09:01.394Z,15.50
2022-11-27T18:11:33.375Z,15.75
2022-11-27T18:14:02.621Z,15.35
2022-11-27T18:16:39.242Z,16.25
2022-11-27T18:19:11.133Z,16.05
2022-11-27T18:21:41.259Z,16.65
2022-11-27T18:24:25.343Z,15.77
2022-11-27T18:27:11.529Z,16.20
2022-11-27T18:29:42.680Z,15.38
2022-11-27T18:32:12.970Z,14.93
2022-11-27T18:34:42.066Z,13.85
2022-11-27T18:37:11.009Z,15.20
2022-11-27T18:39:40.780Z,16.15
2022-11-27T18:42:09.052Z,14.02
2022-11-27T18:44:44.402Z,14.27
2022-11-27T18:47:15.910Z,14.23
2022-11-27T18:49:45.135Z,13.38
2022-11-27T18:52:12.997Z,13.95
2022-11-27T18:54:40.876Z,13.57
2022-11-27T18:57:08.803Z,13.40
2022-11-27T18:59:36.868Z,12.23
2022-11-27T19:02:05.898Z,13.85
2022-11-27T19:04:38.151Z,12.02
2022-11-27T19:07:06.540Z,12.30
2022-11-27T19:09:36.125Z,12.65
2022-11-27T19:12:04.413Z,11.52
2022-11-27T19:14:32.052Z,10.90
2022-11-27T19:17:00.259Z,11.27
2022-11-27T19:22:20.700Z,12.52
2022-11-27T19:24:50.768Z,13.70
2022-11-27T19:27:19.260Z,13.57
2022-11-27T19:29:47.350Z,15.13
2022-11-27T19:32:15.317Z,12.80
2022-11-27T19:34:46.247Z,13.65
2022-11-27T19:37:21.361Z,14.18
2022-11-27T19:40:01.708Z,13.10
2022-11-27T19:42:29.613Z,13.93
2022-11-27T19:44:57.152Z,13.88
2022-11-27T19:47:25.168Z,13.88
2022-11-27T19:49:53.458Z,14.10
2022-11-27T19:52:21.360Z,13.85
2022-11-27T19:54:52.297Z,16.40
2022-11-27T19:57:20.489Z,19.05
2022-11-27T19:59:49.918Z,22.63
2022-11-27T20:02:19.870Z,24.73
2022-11-27T20:04:47.876Z,22.60
2022-11-27T20:07:16.071Z,21.23
2022-11-27T20:09:43.868Z,21.25
2022-11-27T20:12:12.505Z,21.45
2022-11-27T20:14:40.507Z,19.90
2022-11-27T20:17:08.726Z,18.92
2022-11-27T20:19:36.987Z,20.00
2022-11-27T20:22:04.898Z,16.10
2022-11-27T20:24:34.444Z,16.00
2022-11-27T20:27:04.135Z,14.93
2022-11-27T20:29:32.890Z,14.18
2022-11-27T20:32:02.289Z,15.95
2022-11-27T20:34:29.956Z,13.73
2022-11-27T20:36:58.060Z,14.32
2022-11-27T20:39:25.867Z,13.45
2022-11-27T20:41:54.072Z,13.55
2022-11-27T20:44:25.817Z,14.05
2022-11-27T20:46:53.787Z,13.75
2022-11-27T20:49:21.722Z,16.02
2022-11-27T20:51:51.187Z,14.05
2022-11-27T20:54:19.450Z,14.27
2022-11-27T20:56:48.228Z,15.65
2022-11-27T20:59:16.146Z,15.70
2022-11-27T21:01:45.204Z,14.48
2022-11-27T21:04:24.337Z,14.00
2022-11-27T21:06:54.009Z,15.55
2022-11-27T21:09:22.478Z,12.85
2022-11-27T21:11:51.086Z,14.85
2022-11-27T21:14:18.706Z,15.35
2022-11-27T21:16:48.988Z,14.27
2022-11-27T21:19:27.445Z,14.63
2022-11-27T21:21:55.619Z,15.43
2022-11-27T21:24:26.306Z,15.23
2022-11-27T21:26:54.012Z,13.35
2022-11-27T21:29:25.860Z,15.02
2022-11-27T21:31:54.113Z,15.38
2022-11-27T21:34:23.461Z,16.65
2022-11-27T21:36:50.777Z,16.25
2022-11-27T21:39:20.718Z,16.30
2022-11-27T21:41:49.835Z,15.52
2022-11-27T21:44:18.117Z,17.35
2022-11-27T21:46:46.338Z,15.40
2022-11-27T21:49:15.840Z,15.65
2022-11-27T21:51:43.706Z,17.13
2022-11-27T21:54:13.126Z,17.10
2022-11-27T21:56:41.017Z,15.63
2022-11-27T21:59:11.066Z,17.13
2022-11-27T22:01:38.803Z,15.73
2022-11-27T22:04:06.260Z,15.40
2022-11-27T22:06:38.555Z,16.05
2022-11-27T22:09:10.511Z,15.95
2022-11-27T22:11:40.547Z,14.70
2022-11-27T22:14:08.995Z,15.82
2022-11-27T22:16:44.394Z,14.32
2022-11-27T22:19:12.606Z,15.52
2022-11-27T22:21:39.594Z,15.30
2022-11-27T22:24:06.930Z,14.93
2022-11-27T22:26:33.945Z,14.82
2022-11-27T22:29:00.938Z,13.75
2022-11-27T22:31:31.183Z,13.63
2022-11-27T22:33:58.498Z,14.85
2022-11-27T22:36:31.946Z,14.55
2022-11-27T22:39:02.460Z,15.18
2022-11-27T22:41:31.567Z,14.70
2022-11-27T22:44:02.595Z,14.07
2022-11-27T22:46:33.111Z,14.18
2022-11-27T22:49:02.734Z,14.93
2022-11-27T22:51:32.026Z,13.82
2022-11-27T22:53:59.381Z,15.27
2022-11-27T22:56:26.380Z,14.70
2022-11-27T22:59:11.305Z,15.13
2022-11-27T23:01:41.026Z,14.63
2022-11-27T23:04:08.192Z,15.43
2022-11-27T23:06:35.226Z,14.68
2022-11-27T23:09:02.266Z,15.23
2022-11-27T23:11:29.277Z,14.70
2022-11-27T23:13:58.201Z,15.70
2022-11-27T23:16:25.602Z,14.75
2022-11-27T23:18:52.746Z,16.58
2022-11-27T23:21:22.289Z,15.75
2022-11-27T23:23:49.559Z,15.82
2022-11-27T23:26:19.778Z,15.07
2022-11-27T23:28:47.865Z,16.63
2022-11-27T23:31:34.838Z,15.00
2022-11-27T23:34:05.269Z,15.93
2022-11-27T23:36:33.451Z,16.10
2022-11-27T23:39:02.109Z,17.13
2022-11-27T23:41:29.465Z,16.30
2022-11-27T23:43:57.466Z,16.45
2022-11-27T23:46:27.228Z,16.95
2022-11-27T23:49:00.266Z,17.75
2022-11-27T23:51:30.112Z,17.08
2022-11-27T23:53:57.566Z,16.42
2022-11-27T23:56:26.545Z,17.05
2022-11-27T23:58:55.119Z,16.63
